createdAt,value
2022-10-18T00:00:50.712Z,186.70
2022-10-18T00:03:23.279Z,211.98
2022-10-18T00:05:53.177Z,212.95
2022-10-18T00:08:23.230Z,201.75
2022-10-18T00:10:51.185Z,161.80
2022-10-18T00:13:20.813Z,155.23
2022-10-18T00:15:53.447Z,211.13
2022-10-18T00:18:21.348Z,185.55
2022-10-18T00:20:58.065Z,211.45
2022-10-18T00:23:26.098Z,237.02
2022-10-18T00:26:07.038Z,190.20
2022-10-18T00:28:39.313Z,187.25
2022-10-18T00:31:17.117Z,183.13
2022-10-18T00:33:45.891Z,212.48
2022-10-18T00:36:13.903Z,234.30
2022-10-18T00:38:41.785Z,202.63
2022-10-18T00:41:10.854Z,231.13
2022-10-18T00:44:10.866Z,222.30
2022-10-18T00:46:43.285Z,217.00
2022-10-18T00:49:16.454Z,257.75
2022-10-18T00:52:03.086Z,233.60
2022-10-18T00:54:32.644Z,242.77
2022-10-18T00:57:00.404Z,229.00
2022-10-18T00:59:28.191Z,223.15
2022-10-18T01:01:57.471Z,218.43
2022-10-18T01:04:25.541Z,231.82
2022-10-18T01:07:26.343Z,208.32
2022-10-18T01:10:21.297Z,215.25
2022-10-18T01:13:07.832Z,243.15
2022-10-18T01:15:45.061Z,198.63
2022-10-18T01:18:28.244Z,212.88
2022-10-18T01:21:13.947Z,210.25
2022-10-18T01:24:09.430Z,255.27
2022-10-18T01:26:52.205Z,206.32
2022-10-18T01:30:10.571Z,259.75
2022-10-18T01:32:44.692Z,226.70
2022-10-18T01:35:14.686Z,225.07
2022-10-18T01:37:42.485Z,230.85
2022-10-18T01:40:10.648Z,213.05
2022-10-18T01:42:38.464Z,235.50
2022-10-18T01:45:08.019Z,221.13
2022-10-18T01:47:35.649Z,242.02
2022-10-18T01:50:05.527Z,255.25
2022-10-18T01:52:33.790Z,249.60
2022-10-18T01:55:01.522Z,249.45
2022-10-18T01:57:32.406Z,244.75
2022-10-18T02:00:26.748Z,232.48
2022-10-18T02:03:03.566Z,221.23
2022-10-18T02:05:40.456Z,227.70
2022-10-18T02:08:23.264Z,210.60
2022-10-18T02:11:02.834Z,216.30
2022-10-18T02:13:37.243Z,269.98
2022-10-18T02:16:07.774Z,230.90
2022-10-18T02:18:37.681Z,226.75
2022-10-18T02:21:05.683Z,211.23
2022-10-18T02:23:33.483Z,213.45
2022-10-18T02:26:01.225Z,235.80
2022-10-18T02:28:29.294Z,228.70
2022-10-18T02:31:09.130Z,218.95
2022-10-18T02:34:14.316Z,219.27
2022-10-18T02:36:48.206Z,241.00
2022-10-18T02:39:18.575Z,234.23
2022-10-18T02:41:46.854Z,239.20
2022-10-18T02:44:14.641Z,226.90
2022-10-18T02:46:42.293Z,229.18
2022-10-18T02:49:09.914Z,233.32
2022-10-18T02:51:37.591Z,240.85
2022-10-18T02:54:05.352Z,233.25
2022-10-18T02:56:33.552Z,232.05
2022-10-18T02:59:01.912Z,233.20
2022-10-18T03:01:29.652Z,218.88
2022-10-18T03:03:57.661Z,233.85
2022-10-18T03:06:25.345Z,219.80
2022-10-18T03:08:52.961Z,232.18
2022-10-18T03:11:21.008Z,206.68
2022-10-18T03:13:52.013Z,216.00
2022-10-18T03:16:19.776Z,227.73
2022-10-18T03:18:49.508Z,198.13
2022-10-18T03:21:17.528Z,223.40
2022-10-18T03:23:45.235Z,191.45
2022-10-18T03:28:44.187Z,206.63
2022-10-18T03:31:11.819Z,193.90
2022-10-18T03:33:40.241Z,208.77
2022-10-18T03:36:09.606Z,202.25
2022-10-18T03:38:37.309Z,208.32
2022-10-18T03:41:06.094Z,200.48
2022-10-18T03:43:33.895Z,198.55
2022-10-18T03:46:01.861Z,205.48
2022-10-18T03:48:29.569Z,213.57
2022-10-18T03:50:57.399Z,199.82
2022-10-18T03:53:25.036Z,192.85
2022-10-18T03:55:53.485Z,202.68
2022-10-18T03:58:21.557Z,204.30
2022-10-18T04:00:53.036Z,203.57
2022-10-18T04:03:21.346Z,230.15
2022-10-18T04:05:49.338Z,215.50
2022-10-18T04:08:17.281Z,196.63
2022-10-18T04:10:45.313Z,210.88
2022-10-18T04:13:15.461Z,204.85
2022-10-18T04:15:43.433Z,194.57
2022-10-18T04:18:11.168Z,201.07
2022-10-18T04:20:39.184Z,205.75
2022-10-18T04:23:08.236Z,201.50
2022-10-18T04:25:36.062Z,199.00
2022-10-18T04:28:04.885Z,197.52
2022-10-18T04:30:32.721Z,193.98
2022-10-18T04:33:00.676Z,215.25
2022-10-18T04:35:28.723Z,200.10
2022-10-18T04:37:56.398Z,189.63
2022-10-18T04:40:24.131Z,185.30
2022-10-18T04:42:51.813Z,195.77
2022-10-18T04:45:19.740Z,204.18
2022-10-18T04:47:47.648Z,172.57
2022-10-18T04:50:15.571Z,185.63
2022-10-18T04:52:43.296Z,172.07
2022-10-18T04:55:11.573Z,178.10
2022-10-18T04:58:13.903Z,179.20
2022-10-18T05:00:42.388Z,179.75
2022-10-18T05:03:10.950Z,179.98
2022-10-18T05:06:00.091Z,166.70
2022-10-18T05:08:29.868Z,153.90
2022-10-18T05:10:57.527Z,166.15
2022-10-18T05:13:26.305Z,153.85
2022-10-18T05:15:53.940Z,161.52
2022-10-18T05:18:23.008Z,163.85
2022-10-18T05:20:50.622Z,171.10
2022-10-18T05:23:19.635Z,165.57
2022-10-18T05:25:47.568Z,172.40
2022-10-18T05:28:38.302Z,165.40
2022-10-18T05:31:07.075Z,160.15
2022-10-18T05:33:35.350Z,167.77
2022-10-18T05:36:03.728Z,165.13
2022-10-18T05:38:32.191Z,148.82
2022-10-18T05:41:00.098Z,151.40
2022-10-18T05:43:28.940Z,150.35
2022-10-18T05:45:57.182Z,144.43
2022-10-18T05:48:25.162Z,163.45
2022-10-18T05:50:52.945Z,148.50
2022-10-18T05:53:37.504Z,146.38
2022-10-18T05:56:06.785Z,132.73
2022-10-18T05:58:34.836Z,140.02
2022-10-18T06:01:05.205Z,141.13
2022-10-18T06:03:34.658Z,131.77
2022-10-18T06:06:03.872Z,125.32
2022-10-18T06:08:32.141Z,122.32
2022-10-18T06:11:00.612Z,153.20
2022-10-18T06:13:31.136Z,132.00
2022-10-18T06:16:00.215Z,172.90
2022-10-18T06:18:30.303Z,84.80
2022-10-18T06:20:59.838Z,145.90
2022-10-18T06:23:28.195Z,89.95
2022-10-18T06:26:13.969Z,169.00
2022-10-18T06:28:41.624Z,78.07
2022-10-18T06:31:10.577Z,233.45
2022-10-18T06:33:38.369Z,144.68
2022-10-18T06:36:16.711Z,412.88
2022-10-18T06:38:45.541Z,214.52
2022-10-18T06:41:13.485Z,200.02
2022-10-18T06:43:41.206Z,92.93
2022-10-18T06:46:09.084Z,388.10
2022-10-18T06:48:36.874Z,73.95
2022-10-18T06:51:06.224Z,216.85
2022-10-18T06:57:47.159Z,79.55
2022-10-18T07:00:15.310Z,67.90
2022-10-18T07:02:42.976Z,58.92
2022-10-18T07:05:11.528Z,67.10
2022-10-18T07:07:43.566Z,84.93
2022-10-18T07:10:13.747Z,56.22
2022-10-18T07:12:43.102Z,54.38
2022-10-18T07:15:11.195Z,263.20
2022-10-18T07:17:40.104Z,62.60
2022-10-18T07:20:08.014Z,80.82
2022-10-18T07:22:38.325Z,113.80
2022-10-18T07:25:06.815Z,155.43
2022-10-18T07:27:40.368Z,56.20
2022-10-18T07:30:08.734Z,114.75
2022-10-18T07:32:37.981Z,106.45
2022-10-18T07:35:06.247Z,93.63
2022-10-18T07:37:35.185Z,76.63
2022-10-18T07:40:03.241Z,51.00
2022-10-18T07:42:31.054Z,38.80
2022-10-18T07:44:58.689Z,52.13
2022-10-18T07:47:28.032Z,35.10
2022-10-18T07:49:58.352Z,25.30
2022-10-18T07:52:25.992Z,29.70
2022-10-18T07:54:53.695Z,31.73
2022-10-18T07:57:23.503Z,23.92
2022-10-18T07:59:56.551Z,24.55
2022-10-18T08:02:24.309Z,24.73
2022-10-18T08:04:51.967Z,22.63
2022-10-18T08:07:19.625Z,29.45
2022-10-18T08:09:47.684Z,24.65
2022-10-18T08:12:16.808Z,23.63
2022-10-18T08:14:44.502Z,24.35
2022-10-18T08:17:12.912Z,39.15
2022-10-18T08:19:58.301Z,219.32
2022-10-18T08:22:36.883Z,26.17
2022-10-18T08:25:05.177Z,84.72
2022-10-18T08:27:35.987Z,95.28
2022-10-18T08:30:03.960Z,29.80
2022-10-18T08:32:32.342Z,79.78
2022-10-18T08:35:02.269Z,38.15
2022-10-18T08:37:32.951Z,21.58
2022-10-18T08:40:00.988Z,19.02
2022-10-18T08:42:50.243Z,15.35
2022-10-18T08:45:37.552Z,15.98
2022-10-18T08:48:05.889Z,23.75
2022-10-18T08:50:37.053Z,13.18
2022-10-18T08:53:39.897Z,12.25
2022-10-18T08:56:14.899Z,20.33
2022-10-18T08:58:45.086Z,16.80
2022-10-18T09:01:15.801Z,16.60
2022-10-18T09:04:18.324Z,14.30
2022-10-18T09:07:16.692Z,15.88
2022-10-18T09:10:03.273Z,19.85
2022-10-18T09:12:31.109Z,13.98
2022-10-18T09:15:25.504Z,13.52
2022-10-18T09:18:18.805Z,12.48
2022-10-18T09:20:58.074Z,13.27
2022-10-18T09:23:57.774Z,13.27
2022-10-18T09:26:25.552Z,17.23
2022-10-18T09:29:02.120Z,11.65
2022-10-18T09:31:40.809Z,12.93
2022-10-18T09:34:19.878Z,12.27
2022-10-18T09:36:48.398Z,11.35
2022-10-18T09:39:19.437Z,14.48
2022-10-18T09:42:04.304Z,9.88
2022-10-18T09:44:39.806Z,11.57
2022-10-18T09:47:16.952Z,12.88
2022-10-18T09:49:47.724Z,11.88
2022-10-18T09:52:39.487Z,16.90
2022-10-18T09:55:13.728Z,9.85
2022-10-18T09:57:50.689Z,9.57
2022-10-18T10:00:24.793Z,12.90
2022-10-18T10:02:56.035Z,12.63
2022-10-18T10:05:25.062Z,11.20
2022-10-18T10:07:59.708Z,13.77
2022-10-18T10:10:28.080Z,9.98
2022-10-18T10:13:22.313Z,12.73
2022-10-18T10:16:00.276Z,14.13
2022-10-18T10:18:33.514Z,15.88
2022-10-18T10:21:07.266Z,10.63
2022-10-18T10:23:44.574Z,13.90
2022-10-18T10:26:28.299Z,10.88
2022-10-18T10:28:56.342Z,12.65
2022-10-18T10:31:24.512Z,8.85
2022-10-18T10:34:14.641Z,10.43
2022-10-18T10:36:49.719Z,9.25
2022-10-18T10:39:19.668Z,12.85
2022-10-18T10:41:48.658Z,14.43
2022-10-18T10:44:21.258Z,16.65
2022-10-18T10:46:49.622Z,8.20
2022-10-18T10:49:39.688Z,6.93
2022-10-18T10:52:09.381Z,10.77
2022-10-18T10:55:01.399Z,12.77
2022-10-18T10:57:33.448Z,7.60
2022-10-18T11:00:01.064Z,8.50
2022-10-18T11:02:32.617Z,9.88
2022-10-18T11:05:23.578Z,9.00
2022-10-18T11:07:52.793Z,9.50
2022-10-18T11:10:24.230Z,14.35
2022-10-18T11:13:02.521Z,7.93
2022-10-18T11:15:33.210Z,10.10
2022-10-18T11:18:23.364Z,7.75
2022-10-18T11:21:00.933Z,11.73
2022-10-18T11:23:31.820Z,14.75
2022-10-18T11:26:11.504Z,9.90
2022-10-18T11:28:45.464Z,9.80
2022-10-18T11:32:00.452Z,8.32
2022-10-18T11:34:32.768Z,13.10
2022-10-18T11:37:36.135Z,11.35
2022-10-18T11:40:28.267Z,9.13
2022-10-18T11:43:24.776Z,7.35
2022-10-18T11:45:59.633Z,12.32
2022-10-18T11:48:48.314Z,13.88
2022-10-18T11:51:29.789Z,8.43
2022-10-18T11:54:25.551Z,11.48
2022-10-18T11:57:18.809Z,7.65
2022-10-18T12:00:20.145Z,10.52
2022-10-18T12:03:06.487Z,11.40
2022-10-18T12:05:36.139Z,9.55
2022-10-18T12:08:18.866Z,11.90
2022-10-18T12:11:06.728Z,11.95
2022-10-18T12:13:54.876Z,10.13
2022-10-18T12:16:45.418Z,17.55
2022-10-18T12:19:23.326Z,8.15
2022-10-18T12:22:13.947Z,11.70
2022-10-18T12:24:45.127Z,9.93
2022-10-18T12:27:14.140Z,11.48
2022-10-18T12:30:00.572Z,12.73
2022-10-18T12:32:32.126Z,12.90
2022-10-18T12:38:01.765Z,7.10
2022-10-18T12:40:50.057Z,8.77
2022-10-18T12:43:23.155Z,11.82
2022-10-18T12:45:56.266Z,7.72
2022-10-18T12:48:35.710Z,10.25
2022-10-18T12:51:22.087Z,12.75
2022-10-18T12:53:51.777Z,14.95
2022-10-18T12:56:29.204Z,9.70
2022-10-18T12:59:29.140Z,11.75
2022-10-18T13:01:59.684Z,12.85
2022-10-18T13:04:27.281Z,9.27
2022-10-18T13:07:03.173Z,16.15
2022-10-18T13:10:09.769Z,11.95
2022-10-18T13:12:52.710Z,18.70
2022-10-18T13:15:44.062Z,16.30
2022-10-18T13:18:36.786Z,12.70
2022-10-18T13:21:13.523Z,9.30
2022-10-18T13:23:48.662Z,12.98
2022-10-18T13:26:23.250Z,13.90
2022-10-18T13:29:24.243Z,15.90
2022-10-18T13:31:51.676Z,12.07
2022-10-18T13:34:25.335Z,12.73
2022-10-18T13:37:16.116Z,14.75
2022-10-18T13:39:43.674Z,10.32
2022-10-18T13:42:14.395Z,12.25
2022-10-18T13:44:46.627Z,14.40
2022-10-18T13:47:34.176Z,15.38
2022-10-18T13:50:41.553Z,14.43
2022-10-18T13:53:31.068Z,12.50
2022-10-18T13:56:21.667Z,16.20
2022-10-18T13:59:14.415Z,14.18
2022-10-18T14:02:15.130Z,13.27
2022-10-18T14:05:10.608Z,12.43
2022-10-18T14:07:43.593Z,11.20
2022-10-18T14:10:43.031Z,13.18
2022-10-18T14:13:18.246Z,9.25
2022-10-18T14:16:18.361Z,10.65
2022-10-18T14:18:47.018Z,18.10
2022-10-18T14:21:21.829Z,17.63
2022-10-18T14:23:50.029Z,24.38
2022-10-18T14:26:19.052Z,18.42
2022-10-18T14:29:05.451Z,20.60
2022-10-18T14:31:33.366Z,14.98
2022-10-18T14:34:01.117Z,29.67
2022-10-18T14:36:37.910Z,18.92
2022-10-18T14:39:06.193Z,16.33
2022-10-18T14:41:38.771Z,32.25
2022-10-18T14:44:14.357Z,31.42
2022-10-18T14:46:43.445Z,23.23
2022-10-18T14:49:11.507Z,36.38
2022-10-18T14:51:41.970Z,58.05
2022-10-18T14:54:21.008Z,23.17
2022-10-18T14:56:49.089Z,20.35
2022-10-18T14:59:31.177Z,21.45
2022-10-18T15:02:00.672Z,16.80
2022-10-18T15:04:34.281Z,15.90
2022-10-18T15:07:03.673Z,24.77
2022-10-18T15:09:33.144Z,23.02
2022-10-18T15:12:05.004Z,28.13
2022-10-18T15:14:32.965Z,23.50
2022-10-18T15:17:03.561Z,24.27
2022-10-18T15:22:31.281Z,15.25
2022-10-18T15:25:05.927Z,20.85
2022-10-18T15:27:36.515Z,15.52
2022-10-18T15:30:19.610Z,24.13
2022-10-18T15:32:53.043Z,25.30
2022-10-18T15:35:32.570Z,21.25
2022-10-18T15:38:21.320Z,23.23
2022-10-18T15:40:48.958Z,23.52
2022-10-18T15:43:37.158Z,29.15
2022-10-18T15:46:06.708Z,52.10
2022-10-18T15:48:41.409Z,32.30
2022-10-18T15:51:20.524Z,22.05
2022-10-18T15:53:52.547Z,34.13
2022-10-18T15:56:39.245Z,24.48
2022-10-18T15:59:25.881Z,23.88
2022-10-18T16:01:54.075Z,25.48
2022-10-18T16:04:32.254Z,30.88
2022-10-18T16:07:00.182Z,26.27
2022-10-18T16:09:28.754Z,20.23
2022-10-18T16:11:58.313Z,30.27
2022-10-18T16:14:30.289Z,23.75
2022-10-18T16:17:02.520Z,25.90
2022-10-18T16:19:33.132Z,31.42
2022-10-18T16:22:06.111Z,27.75
2022-10-18T16:24:34.305Z,27.77
2022-10-18T16:27:01.952Z,28.13
2022-10-18T16:29:32.256Z,28.88
2022-10-18T16:32:00.117Z,29.65
2022-10-18T16:34:28.153Z,25.92
2022-10-18T16:36:56.749Z,28.98
2022-10-18T16:39:24.452Z,25.42
2022-10-18T16:41:52.706Z,24.58
2022-10-18T16:44:20.416Z,41.85
2022-10-18T16:46:51.091Z,36.92
2022-10-18T16:49:25.888Z,29.33
2022-10-18T16:51:53.924Z,29.27
2022-10-18T16:54:21.857Z,29.98
2022-10-18T16:56:50.344Z,30.90
2022-10-18T16:59:26.748Z,30.83
2022-10-18T17:01:54.461Z,29.83
2022-10-18T17:04:22.170Z,27.70
2022-10-18T17:06:50.213Z,26.38
2022-10-18T17:09:17.812Z,27.65
2022-10-18T17:11:47.163Z,31.77
2022-10-18T17:14:14.747Z,25.67
2022-10-18T17:16:46.692Z,25.77
2022-10-18T17:19:18.363Z,28.63
2022-10-18T17:21:46.476Z,22.77
2022-10-18T17:24:14.150Z,27.30
2022-10-18T17:26:42.381Z,21.80
2022-10-18T17:29:10.219Z,22.77
2022-10-18T17:31:37.851Z,21.85
2022-10-18T17:34:05.546Z,19.77
2022-10-18T17:36:33.694Z,25.10
2022-10-18T17:39:02.026Z,27.42
2022-10-18T17:41:29.965Z,19.27
2022-10-18T17:43:57.564Z,21.77
2022-10-18T17:46:25.470Z,27.75
2022-10-18T17:48:53.845Z,21.55
2022-10-18T17:51:21.764Z,23.88
2022-10-18T17:53:49.393Z,21.08
2022-10-18T17:56:16.932Z,20.20
2022-10-18T17:58:45.744Z,26.13
2022-10-18T18:01:18.345Z,25.77
2022-10-18T18:03:49.330Z,21.30
2022-10-18T18:06:24.154Z,22.10
2022-10-18T18:08:53.420Z,20.67
2022-10-18T18:11:22.481Z,21.63
2022-10-18T18:13:50.075Z,20.60
2022-10-18T18:16:22.381Z,24.70
2022-10-18T18:18:51.362Z,23.75
2022-10-18T18:23:50.252Z,22.30
2022-10-18T18:26:18.987Z,20.08
2022-10-18T18:28:47.184Z,21.17
2022-10-18T18:31:16.559Z,23.88
2022-10-18T18:33:45.329Z,27.70
2022-10-18T18:36:13.098Z,25.70
2022-10-18T18:38:43.077Z,24.63
2022-10-18T18:41:16.016Z,24.58
2022-10-18T18:43:45.862Z,22.70
2022-10-18T18:46:13.617Z,24.70
2022-10-18T18:48:42.374Z,21.27
2022-10-18T18:51:16.714Z,26.40
2022-10-18T18:53:44.996Z,25.83
2022-10-18T18:56:14.973Z,29.20
2022-10-18T18:58:44.156Z,30.25
2022-10-18T19:01:15.007Z,26.95
2022-10-18T19:03:43.630Z,29.02
2022-10-18T19:06:14.519Z,25.45
2022-10-18T19:08:45.007Z,27.38
2022-10-18T19:11:18.232Z,20.77
2022-10-18T19:13:46.868Z,24.77
2022-10-18T19:16:21.953Z,23.10
2022-10-18T19:18:55.653Z,26.02
2022-10-18T19:21:23.799Z,23.25
2022-10-18T19:23:51.480Z,24.58
2022-10-18T19:26:28.295Z,22.48
2022-10-18T19:29:00.794Z,23.33
2022-10-18T19:31:28.743Z,21.33
2022-10-18T19:33:59.665Z,24.65
2022-10-18T19:36:28.578Z,24.52
2022-10-18T19:38:56.826Z,22.15
2022-10-18T19:43:53.386Z,26.65
2022-10-18T19:46:21.018Z,33.55
2022-10-18T19:48:48.933Z,20.92
2022-10-18T19:51:20.271Z,26.30
2022-10-18T19:53:51.856Z,32.95
2022-10-18T19:56:21.109Z,24.30
2022-10-18T19:58:49.053Z,21.50
2022-10-18T20:01:17.263Z,20.58
2022-10-18T20:03:45.010Z,19.88
2022-10-18T20:06:12.681Z,21.67
2022-10-18T20:08:40.422Z,23.67
2022-10-18T20:11:09.696Z,21.63
2022-10-18T20:13:40.703Z,19.60
2022-10-18T20:16:09.434Z,19.42
2022-10-18T20:18:37.213Z,20.20
2022-10-18T20:21:06.194Z,26.10
2022-10-18T20:23:38.190Z,22.05
2022-10-18T20:28:38.783Z,20.77
2022-10-18T20:31:14.149Z,17.95
2022-10-18T20:33:41.729Z,19.25
2022-10-18T20:36:11.883Z,19.58
2022-10-18T20:38:40.231Z,21.98
2022-10-18T20:41:10.906Z,19.17
2022-10-18T20:43:39.345Z,19.95
2022-10-18T20:46:07.040Z,20.15
2022-10-18T20:48:35.464Z,27.20
2022-10-18T20:51:07.940Z,24.23
2022-10-18T20:53:37.499Z,19.67
2022-10-18T20:56:06.620Z,15.60
2022-10-18T20:58:35.902Z,14.57
2022-10-18T21:01:10.418Z,21.60
2022-10-18T21:03:39.719Z,22.30
2022-10-18T21:06:11.715Z,19.17
2022-10-18T21:08:40.048Z,21.17
2022-10-18T21:11:08.048Z,20.15
2022-10-18T21:13:37.109Z,18.70
2022-10-18T21:16:07.505Z,18.60
2022-10-18T21:18:40.538Z,21.70
2022-10-18T21:21:16.627Z,23.70
2022-10-18T21:23:45.357Z,19.88
2022-10-18T21:26:18.077Z,19.77
2022-10-18T21:28:45.964Z,17.35
2022-10-18T21:31:18.293Z,17.52
2022-10-18T21:33:46.560Z,18.67
2022-10-18T21:36:14.893Z,16.73
2022-10-18T21:38:46.332Z,20.58
2022-10-18T21:43:45.131Z,18.27
2022-10-18T21:46:13.023Z,23.85
2022-10-18T21:48:46.242Z,21.83
2022-10-18T21:51:14.997Z,21.40
2022-10-18T21:53:43.955Z,17.67
2022-10-18T21:56:21.911Z,26.00
2022-10-18T21:58:49.469Z,24.45
2022-10-18T22:01:28.985Z,25.17
2022-10-18T22:03:57.114Z,27.02
2022-10-18T22:06:25.774Z,27.55
2022-10-18T22:08:54.581Z,23.83
2022-10-18T22:11:28.645Z,26.88
2022-10-18T22:13:56.347Z,26.15
2022-10-18T22:16:24.190Z,22.60
2022-10-18T22:18:58.043Z,27.05
2022-10-18T22:21:26.998Z,26.73
2022-10-18T22:23:57.017Z,26.88
2022-10-18T22:26:33.017Z,33.70
2022-10-18T22:29:02.285Z,34.92
2022-10-18T22:31:32.296Z,31.77
2022-10-18T22:34:08.012Z,27.92
2022-10-18T22:36:36.258Z,29.67
2022-10-18T22:39:05.580Z,30.13
2022-10-18T22:41:34.153Z,30.45
2022-10-18T22:44:03.658Z,26.52
2022-10-18T22:46:32.725Z,32.03
2022-10-18T22:49:00.462Z,32.83
2022-10-18T22:51:28.400Z,25.38
2022-10-18T22:53:56.105Z,29.75
2022-10-18T22:56:23.795Z,27.98
2022-10-18T22:58:51.839Z,35.75
2022-10-18T23:01:21.283Z,32.90
2022-10-18T23:03:55.990Z,34.22
2022-10-18T23:06:34.923Z,32.63
2022-10-18T23:09:05.681Z,35.38
2022-10-18T23:11:34.212Z,26.13
2022-10-18T23:14:03.955Z,31.77
2022-10-18T23:16:32.386Z,28.42
2022-10-18T23:19:00.191Z,33.65
2022-10-18T23:21:28.423Z,29.52
2022-10-18T23:23:56.296Z,35.33
2022-10-18T23:26:25.374Z,34.65
2022-10-18T23:28:53.361Z,36.03
2022-10-18T23:31:31.742Z,33.47
2022-10-18T23:34:01.423Z,38.67
2022-10-18T23:36:29.168Z,38.05
2022-10-18T23:38:57.345Z,38.13
2022-10-18T23:41:25.492Z,33.97
2022-10-18T23:43:54.761Z,31.30
2022-10-18T23:46:22.722Z,29.63
2022-10-18T23:48:50.652Z,34.97
2022-10-18T23:51:19.114Z,35.75
2022-10-18T23:53:47.298Z,33.08
2022-10-18T23:56:15.933Z,29.70
2022-10-18T23:58:44.079Z,31.33
